createdAt,value
2017-11-12T00:00:47.401Z,1.17
2017-11-12T00:03:14.931Z,1.00
2017-11-12T00:05:42.516Z,1.10
2017-11-12T00:08:10.059Z,1.00
2017-11-12T00:10:37.605Z,1.10
2017-11-12T00:13:06.148Z,1.10
2017-11-12T00:15:33.666Z,1.10
2017-11-12T00:18:01.194Z,1.10
2017-11-12T00:20:28.766Z,1.10
2017-11-12T00:22:56.303Z,1.40
2017-11-12T00:25:23.860Z,1.20
2017-11-12T00:27:51.395Z,1.10
2017-11-12T00:30:18.931Z,1.20
2017-11-12T00:32:46.456Z,1.10
2017-11-12T00:35:14.799Z,1.37
2017-11-12T00:37:42.342Z,1.33
2017-11-12T00:40:10.951Z,1.00
2017-11-12T00:42:38.507Z,1.40
2017-11-12T00:45:06.088Z,1.20
2017-11-12T00:47:33.660Z,1.17
2017-11-12T00:50:01.226Z,1.40
2017-11-12T00:52:28.768Z,1.37
2017-11-12T00:54:56.345Z,1.30
2017-11-12T00:57:23.889Z,1.40
2017-11-12T00:59:51.436Z,1.40
2017-11-12T01:02:18.985Z,1.40
2017-11-12T01:04:47.302Z,1.30
2017-11-12T01:07:14.836Z,1.30
2017-11-12T01:09:43.158Z,1.20
2017-11-12T01:12:10.704Z,1.25
2017-11-12T01:14:39.292Z,1.40
2017-11-12T01:17:06.844Z,1.10
2017-11-12T01:19:34.398Z,1.20
2017-11-12T01:22:03.716Z,1.20
2017-11-12T01:24:31.262Z,1.10
2017-11-12T01:26:59.582Z,1.30
2017-11-12T01:29:27.110Z,1.20
2017-11-12T01:31:54.692Z,1.20
2017-11-12T01:34:22.265Z,1.30
2017-11-12T01:36:49.803Z,1.20
2017-11-12T01:39:18.129Z,2.03
2017-11-12T01:41:45.673Z,1.20
2017-11-12T01:44:13.212Z,1.20
2017-11-12T01:46:40.796Z,1.20
2017-11-12T01:49:08.322Z,1.30
2017-11-12T01:51:35.874Z,1.17
2017-11-12T01:54:03.434Z,1.10
2017-11-12T01:56:30.977Z,1.35
2017-11-12T01:58:59.696Z,1.30
2017-11-12T02:01:27.313Z,1.20
2017-11-12T02:03:54.920Z,1.20
2017-11-12T02:06:22.479Z,1.23
2017-11-12T02:08:50.018Z,1.20
2017-11-12T02:11:18.648Z,1.30
2017-11-12T02:13:46.186Z,1.02
2017-11-12T02:16:14.532Z,1.00
2017-11-12T02:18:42.851Z,1.08
2017-11-12T02:21:10.436Z,1.10
2017-11-12T02:23:38.067Z,1.10
2017-11-12T02:26:05.607Z,1.05
2017-11-12T02:28:33.198Z,1.23
2017-11-12T02:31:00.794Z,1.00
2017-11-12T02:33:28.369Z,1.10
2017-11-12T02:35:55.959Z,1.10
2017-11-12T02:38:24.329Z,1.10
2017-11-12T02:40:51.882Z,1.17
2017-11-12T02:43:19.441Z,1.42
2017-11-12T02:45:46.972Z,1.23
2017-11-12T02:48:14.543Z,1.30
2017-11-12T02:50:42.082Z,1.40
2017-11-12T02:53:10.413Z,1.08
2017-11-12T02:55:37.995Z,1.20
2017-11-12T02:58:06.343Z,1.20
2017-11-12T03:00:34.727Z,1.10
2017-11-12T03:03:03.029Z,1.27
2017-11-12T03:05:30.602Z,1.20
2017-11-12T03:07:58.170Z,1.30
2017-11-12T03:10:25.725Z,1.45
2017-11-12T03:12:53.284Z,1.10
2017-11-12T03:15:20.882Z,1.30
2017-11-12T03:17:49.206Z,1.40
2017-11-12T03:20:16.828Z,1.30
2017-11-12T03:22:45.126Z,1.20
2017-11-12T03:25:13.418Z,1.23
2017-11-12T03:27:41.008Z,1.37
2017-11-12T03:30:08.546Z,1.48
2017-11-12T03:32:36.142Z,1.30
2017-11-12T03:35:03.701Z,1.90
2017-11-12T03:37:31.265Z,1.80
2017-11-12T03:39:58.828Z,2.05
2017-11-12T03:42:26.372Z,2.00
2017-11-12T03:44:53.905Z,2.10
2017-11-12T03:47:22.241Z,2.22
2017-11-12T03:49:49.785Z,2.53
2017-11-12T03:52:17.341Z,1.83
2017-11-12T03:54:44.914Z,2.83
2017-11-12T03:57:12.469Z,2.40
2017-11-12T03:59:40.078Z,3.72
2017-11-12T04:02:07.645Z,2.80
2017-11-12T04:04:35.244Z,2.75
2017-11-12T04:07:03.616Z,2.60
2017-11-12T04:09:31.958Z,2.80
2017-11-12T04:11:59.500Z,3.08
2017-11-12T04:14:28.061Z,5.82
2017-11-12T04:16:56.372Z,3.00
2017-11-12T04:19:23.962Z,3.50
2017-11-12T04:21:51.504Z,2.87
2017-11-12T04:24:19.076Z,3.75
2017-11-12T04:26:46.640Z,2.92
2017-11-12T04:29:14.178Z,4.30
2017-11-12T04:31:42.512Z,4.90
2017-11-12T04:34:10.065Z,3.20
2017-11-12T04:36:37.665Z,3.72
2017-11-12T04:39:06.020Z,4.00
2017-11-12T04:41:33.562Z,3.30
2017-11-12T04:44:01.116Z,3.33
2017-11-12T04:46:28.703Z,3.65
2017-11-12T04:48:56.272Z,3.17
2017-11-12T04:51:23.834Z,3.50
2017-11-12T04:53:51.399Z,3.30
2017-11-12T04:56:18.973Z,4.85
2017-11-12T04:58:46.541Z,3.40
2017-11-12T05:01:14.091Z,3.45
2017-11-12T05:03:41.646Z,4.12
2017-11-12T05:06:09.193Z,5.00
2017-11-12T05:08:36.735Z,4.22
2017-11-12T05:11:05.036Z,4.43
2017-11-12T05:13:32.591Z,4.05
2017-11-12T05:16:00.152Z,5.28
2017-11-12T05:18:27.705Z,6.55
2017-11-12T05:20:55.295Z,4.90
2017-11-12T05:23:22.852Z,5.87
2017-11-12T05:25:50.506Z,6.10
2017-11-12T05:28:19.916Z,5.43
2017-11-12T05:30:48.257Z,8.15
2017-11-12T05:33:15.819Z,12.13
2017-11-12T05:35:43.376Z,9.60
2017-11-12T05:38:10.931Z,6.82
2017-11-12T05:40:38.503Z,5.72
2017-11-12T05:43:06.045Z,6.70
2017-11-12T05:45:33.618Z,9.27
2017-11-12T05:48:01.178Z,7.12
2017-11-12T05:50:28.723Z,6.47
2017-11-12T05:52:57.079Z,6.68
2017-11-12T05:55:24.640Z,7.18
2017-11-12T05:57:52.195Z,7.03
2017-11-12T06:00:19.796Z,6.90
2017-11-12T06:02:47.374Z,11.60
2017-11-12T06:05:14.934Z,8.95
2017-11-12T06:07:42.494Z,9.43
2017-11-12T06:10:10.402Z,7.70
2017-11-12T06:12:37.961Z,4.62
2017-11-12T06:15:06.568Z,4.90
2017-11-12T06:17:34.215Z,5.43
2017-11-12T06:20:02.877Z,8.40
2017-11-12T06:22:30.437Z,6.97
2017-11-12T06:24:58.821Z,9.45
2017-11-12T06:27:27.118Z,9.57
2017-11-12T06:29:54.700Z,9.13
2017-11-12T06:32:22.293Z,10.43
2017-11-12T06:34:49.857Z,12.85
2017-11-12T06:37:17.399Z,9.90
2017-11-12T06:39:45.970Z,8.18
2017-11-12T06:42:13.535Z,7.90
2017-11-12T06:44:41.098Z,5.68
2017-11-12T06:47:08.684Z,6.87
2017-11-12T06:49:36.232Z,5.00
2017-11-12T06:52:03.788Z,5.37
2017-11-12T06:54:31.333Z,4.95
2017-11-12T06:56:59.772Z,6.93
2017-11-12T06:59:27.322Z,5.90
2017-11-12T07:01:54.881Z,8.40
2017-11-12T07:04:22.486Z,6.93
2017-11-12T07:06:50.038Z,5.80
2017-11-12T07:09:17.619Z,5.70
2017-11-12T07:11:45.202Z,6.75
2017-11-12T07:14:12.751Z,4.80
2017-11-12T07:16:41.093Z,3.78
2017-11-12T07:19:08.717Z,12.60
2017-11-12T07:21:37.060Z,3.30
2017-11-12T07:24:04.661Z,8.50
2017-11-12T07:26:33.022Z,4.65
2017-11-12T07:29:00.591Z,6.72
2017-11-12T07:31:28.916Z,10.68
2017-11-12T07:33:57.498Z,28.62
2017-11-12T07:36:25.050Z,11.48
2017-11-12T07:38:52.642Z,39.30
2017-11-12T07:41:20.232Z,8.82
2017-11-12T07:43:47.768Z,5.82
2017-11-12T07:46:15.557Z,4.70
2017-11-12T07:48:43.100Z,6.30
2017-11-12T07:51:10.663Z,5.15
2017-11-12T07:53:38.231Z,9.45
2017-11-12T07:56:05.812Z,5.93
2017-11-12T07:58:33.389Z,3.97
2017-11-12T08:01:00.954Z,2.83
2017-11-12T08:03:28.480Z,2.50
2017-11-12T08:05:56.136Z,2.15
2017-11-12T08:08:23.743Z,2.70
2017-11-12T08:10:51.319Z,2.87
2017-11-12T08:13:18.869Z,1.73
2017-11-12T08:15:46.413Z,2.40
2017-11-12T08:18:14.042Z,2.00
2017-11-12T08:20:41.576Z,2.15
2017-11-12T08:23:09.230Z,3.30
2017-11-12T08:25:36.770Z,1.95
2017-11-12T08:28:04.474Z,2.12
2017-11-12T08:30:32.084Z,2.00
2017-11-12T08:33:00.387Z,2.25
2017-11-12T08:35:27.923Z,1.92
2017-11-12T08:37:56.232Z,2.28
2017-11-12T08:40:23.783Z,2.17
2017-11-12T08:42:51.360Z,2.10
2017-11-12T08:45:19.052Z,2.12
2017-11-12T08:47:47.204Z,2.80
2017-11-12T08:50:14.874Z,2.15
2017-11-12T08:52:42.456Z,3.17
2017-11-12T08:55:09.998Z,2.30
2017-11-12T08:57:37.586Z,2.20
2017-11-12T09:00:05.150Z,2.03
2017-11-12T09:02:32.775Z,2.40
2017-11-12T09:05:00.539Z,2.78
2017-11-12T09:07:28.630Z,2.47
2017-11-12T09:09:56.236Z,2.47
2017-11-12T09:12:23.822Z,4.87
2017-11-12T09:14:51.801Z,2.55
2017-11-12T09:17:19.427Z,2.62
2017-11-12T09:19:46.995Z,2.50
2017-11-12T09:22:14.600Z,2.45
2017-11-12T09:24:42.136Z,2.00
2017-11-12T09:27:09.754Z,2.05
2017-11-12T09:29:38.171Z,1.85
2017-11-12T09:32:05.715Z,3.37
2017-11-12T09:34:33.303Z,2.60
2017-11-12T09:37:00.845Z,2.50
2017-11-12T09:39:28.412Z,1.50
2017-11-12T09:41:56.014Z,0.80
2017-11-12T09:44:23.572Z,0.70
2017-11-12T09:46:51.120Z,0.60
2017-11-12T09:49:18.671Z,0.62
2017-11-12T09:51:46.965Z,0.80
2017-11-12T09:54:14.573Z,0.80
2017-11-12T09:56:42.102Z,0.80
2017-11-12T09:59:09.661Z,0.82
2017-11-12T10:01:37.267Z,0.75
2017-11-12T10:04:04.788Z,0.80
2017-11-12T10:06:32.354Z,0.80
2017-11-12T10:08:59.904Z,0.80
2017-11-12T10:11:27.547Z,0.80
2017-11-12T10:13:55.890Z,0.88
2017-11-12T10:16:24.454Z,0.80
2017-11-12T10:18:51.991Z,0.80
2017-11-12T10:21:20.330Z,0.80
2017-11-12T10:23:47.901Z,0.80
2017-11-12T10:26:15.447Z,0.80
2017-11-12T10:28:43.006Z,0.80
2017-11-12T10:31:10.584Z,0.75
2017-11-12T10:33:38.158Z,0.80
2017-11-12T10:36:06.524Z,0.80
2017-11-12T10:38:34.138Z,0.90
2017-11-12T10:41:01.692Z,0.80
2017-11-12T10:43:29.248Z,0.70
2017-11-12T10:45:57.002Z,0.90
2017-11-12T10:48:24.588Z,0.80
2017-11-12T10:50:52.876Z,0.93
2017-11-12T10:53:20.525Z,0.77
2017-11-12T10:55:48.076Z,0.80
2017-11-12T10:58:15.661Z,0.85
2017-11-12T11:00:43.714Z,0.70
2017-11-12T11:03:11.858Z,0.90
2017-11-12T11:05:39.469Z,0.80
2017-11-12T11:08:07.046Z,0.87
2017-11-12T11:10:34.582Z,1.47
2017-11-12T11:13:02.234Z,0.80
2017-11-12T11:15:29.849Z,1.00
2017-11-12T11:17:58.189Z,0.90
2017-11-12T11:20:25.782Z,0.90
2017-11-12T11:22:53.316Z,0.90
2017-11-12T11:25:21.049Z,0.80
2017-11-12T11:27:48.675Z,1.65
2017-11-12T11:30:16.223Z,1.90
2017-11-12T11:32:43.890Z,0.93
2017-11-12T11:35:11.433Z,0.90
2017-11-12T11:37:39.099Z,1.10
2017-11-12T11:40:07.445Z,1.00
2017-11-12T11:42:35.798Z,2.70
2017-11-12T11:45:03.319Z,0.98
2017-11-12T11:47:32.630Z,1.00
2017-11-12T11:50:00.169Z,1.20
2017-11-12T11:52:28.590Z,1.10
2017-11-12T11:54:56.444Z,1.20
2017-11-12T11:57:24.027Z,1.10
2017-11-12T11:59:51.611Z,1.40
2017-11-12T12:02:19.178Z,1.10
2017-11-12T12:04:46.807Z,1.10
2017-11-12T12:07:14.414Z,1.30
2017-11-12T12:09:41.989Z,1.30
2017-11-12T12:12:09.566Z,1.30
2017-11-12T12:14:37.098Z,1.50
2017-11-12T12:17:04.680Z,1.35
2017-11-12T12:19:32.233Z,1.40
2017-11-12T12:21:59.777Z,1.62
2017-11-12T12:24:27.350Z,1.63
2017-11-12T12:26:54.881Z,1.73
2017-11-12T12:29:23.182Z,1.90
2017-11-12T12:31:50.783Z,1.65
2017-11-12T12:34:18.305Z,2.10
2017-11-12T12:36:45.862Z,1.93
2017-11-12T12:39:13.443Z,2.00
2017-11-12T12:41:40.985Z,2.57
2017-11-12T12:44:09.400Z,2.47
2017-11-12T12:46:36.962Z,1.95
2017-11-12T12:49:04.526Z,1.73
2017-11-12T12:51:32.301Z,2.53
2017-11-12T12:53:59.882Z,1.62
2017-11-12T12:56:27.531Z,2.05
2017-11-12T12:58:55.116Z,1.62
2017-11-12T13:01:22.728Z,2.20
2017-11-12T13:03:50.336Z,1.90
2017-11-12T13:06:17.890Z,1.90
2017-11-12T13:08:45.492Z,1.80
2017-11-12T13:11:13.874Z,1.70
2017-11-12T13:13:41.461Z,1.73
2017-11-12T13:16:09.814Z,1.90
2017-11-12T13:18:37.420Z,1.80
2017-11-12T13:21:05.026Z,1.98
2017-11-12T13:23:32.713Z,2.00
2017-11-12T13:26:00.385Z,2.08
2017-11-12T13:28:27.971Z,1.90
2017-11-12T13:30:55.559Z,4.12
2017-11-12T13:33:23.187Z,1.70
2017-11-12T13:35:50.738Z,2.20
2017-11-12T13:38:18.296Z,1.52
2017-11-12T13:40:45.866Z,1.73
2017-11-12T13:43:13.445Z,1.83
2017-11-12T13:45:41.782Z,1.80
2017-11-12T13:48:09.343Z,1.70
2017-11-12T13:50:36.918Z,1.60
2017-11-12T13:53:04.473Z,1.48
2017-11-12T13:55:32.070Z,1.40
2017-11-12T13:57:59.647Z,1.48
2017-11-12T14:00:27.366Z,1.70
2017-11-12T14:02:54.913Z,1.77
2017-11-12T14:05:22.479Z,1.80
2017-11-12T14:07:50.848Z,1.70
2017-11-12T14:10:19.200Z,2.07
2017-11-12T14:12:46.791Z,2.17
2017-11-12T14:15:14.360Z,2.00
2017-11-12T14:17:42.720Z,2.17
2017-11-12T14:20:10.346Z,2.10
2017-11-12T14:22:38.094Z,2.30
2017-11-12T14:25:07.421Z,2.20
2017-11-12T14:27:34.948Z,2.20
2017-11-12T14:30:03.306Z,1.90
2017-11-12T14:32:30.982Z,2.15
2017-11-12T14:34:58.654Z,2.00
2017-11-12T14:37:26.233Z,2.33
2017-11-12T14:39:54.772Z,2.80
2017-11-12T14:42:22.636Z,1.90
2017-11-12T14:44:50.335Z,1.80
2017-11-12T14:47:18.077Z,2.33
2017-11-12T14:49:45.717Z,2.50
2017-11-12T14:52:14.265Z,2.40
2017-11-12T14:54:42.230Z,3.20
2017-11-12T14:57:09.797Z,2.83
2017-11-12T14:59:37.679Z,3.27
2017-11-12T15:02:05.264Z,2.78
2017-11-12T15:04:33.718Z,7.00
2017-11-12T15:07:01.260Z,2.22
2017-11-12T15:09:28.825Z,2.30
2017-11-12T15:11:56.374Z,2.35
2017-11-12T15:14:23.949Z,1.40
2017-11-12T15:16:51.536Z,1.20
2017-11-12T15:19:19.092Z,1.45
2017-11-12T15:21:46.640Z,2.75
2017-11-12T15:24:14.728Z,1.17
2017-11-12T15:26:43.610Z,1.05
2017-11-12T15:29:11.455Z,1.05
2017-11-12T15:31:40.284Z,1.37
2017-11-12T15:34:09.070Z,1.20
2017-11-12T15:36:37.863Z,1.00
2017-11-12T15:39:06.527Z,1.00
2017-11-12T15:41:35.660Z,2.25
2017-11-12T15:44:04.313Z,0.90
2017-11-12T15:46:34.119Z,2.45
2017-11-12T15:49:02.785Z,1.00
2017-11-12T15:51:31.244Z,1.20
2017-11-12T15:53:59.186Z,1.45
2017-11-12T15:56:27.297Z,0.80
2017-11-12T15:58:56.088Z,0.80
2017-11-12T16:01:23.811Z,0.90
2017-11-12T16:03:51.384Z,0.85
2017-11-12T16:06:19.551Z,1.25
2017-11-12T16:08:47.778Z,2.00
2017-11-12T16:11:15.556Z,1.58
2017-11-12T16:13:44.439Z,1.60
2017-11-12T16:16:12.341Z,2.42
2017-11-12T16:18:41.344Z,2.25
2017-11-12T16:21:09.158Z,1.62
2017-11-12T16:23:37.389Z,1.30
2017-11-12T16:26:05.255Z,1.25
2017-11-12T16:28:33.960Z,1.70
2017-11-12T16:31:02.333Z,1.17
2017-11-12T16:33:29.917Z,1.40
2017-11-12T16:35:58.317Z,1.40
2017-11-12T16:38:26.033Z,1.45
2017-11-12T16:40:53.659Z,1.55
2017-11-12T16:43:21.220Z,1.45
2017-11-12T16:45:48.778Z,1.33
2017-11-12T16:48:17.162Z,1.30
2017-11-12T16:50:45.505Z,1.90
2017-11-12T16:53:13.042Z,2.05
2017-11-12T16:55:40.608Z,1.60
2017-11-12T16:58:08.146Z,1.70
2017-11-12T17:00:35.717Z,1.60
2017-11-12T17:03:03.317Z,1.40
2017-11-12T17:05:30.925Z,1.52
2017-11-12T17:07:59.330Z,1.20
2017-11-12T17:10:26.936Z,1.00
2017-11-12T17:12:54.478Z,1.20
2017-11-12T17:15:22.068Z,1.60
2017-11-12T17:17:49.636Z,1.37
2017-11-12T17:20:17.207Z,1.30
2017-11-12T17:22:45.632Z,1.50
2017-11-12T17:25:13.578Z,1.33
2017-11-12T17:27:41.213Z,1.20
2017-11-12T17:30:08.786Z,1.20
2017-11-12T17:32:36.398Z,1.25
2017-11-12T17:35:04.009Z,4.20
2017-11-12T17:37:31.644Z,7.50
2017-11-12T17:39:59.237Z,1.98
2017-11-12T17:42:26.824Z,1.70
2017-11-12T17:44:54.508Z,1.90
2017-11-12T17:47:22.384Z,2.05
2017-11-12T17:49:51.686Z,2.55
2017-11-12T17:52:19.826Z,2.58
2017-11-12T17:54:48.448Z,10.05
2017-11-12T17:57:16.929Z,3.00
2017-11-12T17:59:44.545Z,2.97
2017-11-12T18:02:12.275Z,3.30
2017-11-12T18:04:40.701Z,2.90
2017-11-12T18:07:08.329Z,4.12
2017-11-12T18:09:36.020Z,3.10
2017-11-12T18:12:03.711Z,3.00
2017-11-12T18:14:31.255Z,4.05
2017-11-12T18:16:58.818Z,3.62
2017-11-12T18:19:27.458Z,5.10
2017-11-12T18:21:56.170Z,4.50
2017-11-12T18:24:25.163Z,4.00
2017-11-12T18:26:52.948Z,3.65
2017-11-12T18:29:20.728Z,4.82
2017-11-12T18:31:48.581Z,3.95
2017-11-12T18:34:43.584Z,3.85
2017-11-12T18:37:11.357Z,4.30
2017-11-12T18:39:38.984Z,4.30
2017-11-12T18:42:06.566Z,5.37
2017-11-12T18:44:34.995Z,4.15
2017-11-12T18:47:02.529Z,5.60
2017-11-12T18:49:30.919Z,5.55
2017-11-12T18:51:58.491Z,6.00
2017-11-12T18:54:26.114Z,6.07
2017-11-12T18:57:12.653Z,5.85
2017-11-12T18:59:42.063Z,5.35
2017-11-12T19:02:15.998Z,5.70
2017-11-12T19:04:59.094Z,5.22
2017-11-12T19:07:27.447Z,5.25
2017-11-12T19:09:55.796Z,5.40
2017-11-12T19:12:24.199Z,6.00
2017-11-12T19:14:51.908Z,6.32
2017-11-12T19:17:29.484Z,6.55
2017-11-12T19:20:02.701Z,6.62
2017-11-12T19:22:39.979Z,7.87
2017-11-12T19:25:10.218Z,6.80
2017-11-12T19:27:37.765Z,6.62
2017-11-12T19:30:08.898Z,6.47
2017-11-12T19:32:36.518Z,5.78
2017-11-12T19:35:04.072Z,4.93
2017-11-12T19:37:32.268Z,5.82
2017-11-12T19:40:00.422Z,6.55
2017-11-12T19:42:27.995Z,5.75
2017-11-12T19:44:55.681Z,5.72
2017-11-12T19:47:23.277Z,5.75
2017-11-12T19:49:50.871Z,5.70
2017-11-12T19:52:18.459Z,5.45
2017-11-12T19:54:46.009Z,6.62
2017-11-12T19:57:13.683Z,5.70
2017-11-12T19:59:41.263Z,6.25
2017-11-12T20:02:08.794Z,6.05
2017-11-12T20:04:36.374Z,6.72
2017-11-12T20:07:03.932Z,5.82
2017-11-12T20:09:31.618Z,5.35
2017-11-12T20:11:59.187Z,5.40
2017-11-12T20:14:26.788Z,4.72
2017-11-12T20:16:55.111Z,4.62
2017-11-12T20:19:22.651Z,5.90
2017-11-12T20:21:51.018Z,5.43
2017-11-12T20:24:19.492Z,6.55
2017-11-12T20:26:47.949Z,5.20
2017-11-12T20:29:15.582Z,5.40
2017-11-12T20:31:43.163Z,5.80
2017-11-12T20:34:10.708Z,6.43
2017-11-12T20:36:38.335Z,6.22
2017-11-12T20:39:05.880Z,6.07
2017-11-12T20:41:33.413Z,7.50
2017-11-12T20:44:00.988Z,4.75
2017-11-12T20:46:28.559Z,5.35
2017-11-12T20:48:56.238Z,5.87
2017-11-12T20:51:23.827Z,7.12
2017-11-12T20:53:51.384Z,6.18
2017-11-12T20:56:18.957Z,5.47
2017-11-12T20:58:46.581Z,5.55
2017-11-12T21:01:16.987Z,6.37
2017-11-12T21:04:00.258Z,6.22
2017-11-12T21:06:28.752Z,5.12
2017-11-12T21:08:56.955Z,5.62
2017-11-12T21:11:26.185Z,6.00
2017-11-12T21:13:53.799Z,4.45
2017-11-12T21:16:21.380Z,4.15
2017-11-12T21:18:49.780Z,5.07
2017-11-12T21:21:28.184Z,5.15
2017-11-12T21:23:56.542Z,4.05
2017-11-12T21:26:24.589Z,5.10
2017-11-12T21:28:54.823Z,4.78
2017-11-12T21:31:23.085Z,5.03
2017-11-12T21:34:05.740Z,4.97
2017-11-12T21:36:51.258Z,4.28
2017-11-12T21:39:18.938Z,5.18
2017-11-12T21:41:46.705Z,5.00
2017-11-12T21:44:14.439Z,5.18
2017-11-12T21:46:42.186Z,5.62
2017-11-12T21:49:09.804Z,5.72
2017-11-12T21:51:37.488Z,5.12
2017-11-12T21:54:05.748Z,5.55
2017-11-12T21:56:34.410Z,4.93
2017-11-12T21:59:02.109Z,5.18
2017-11-12T22:01:29.809Z,5.85
2017-11-12T22:03:57.628Z,5.75
2017-11-12T22:06:25.462Z,5.32
2017-11-12T22:08:53.311Z,5.12
2017-11-12T22:11:22.096Z,5.97
2017-11-12T22:13:50.176Z,6.15
2017-11-12T22:16:18.968Z,6.60
2017-11-12T22:18:47.280Z,6.75
2017-11-12T22:21:15.642Z,5.85
2017-11-12T22:23:43.435Z,6.32
2017-11-12T22:26:12.211Z,6.20
2017-11-12T22:28:40.758Z,6.60
2017-11-12T22:31:08.753Z,6.30
2017-11-12T22:33:36.508Z,5.75
2017-11-12T22:36:04.271Z,6.75
2017-11-12T22:38:32.115Z,6.30
2017-11-12T22:40:59.902Z,5.50
2017-11-12T22:43:28.402Z,6.00
2017-11-12T22:45:55.965Z,5.85
2017-11-12T22:48:23.735Z,6.25
2017-11-12T22:50:51.452Z,6.00
2017-11-12T22:53:19.016Z,6.50
2017-11-12T22:55:46.655Z,6.78
2017-11-12T22:58:15.235Z,6.87
2017-11-12T23:00:48.535Z,7.05
2017-11-12T23:03:16.176Z,7.43
2017-11-12T23:05:43.795Z,7.05
2017-11-12T23:08:11.398Z,6.90
2017-11-12T23:10:39.000Z,5.82
2017-11-12T23:13:06.552Z,7.50
2017-11-12T23:15:34.140Z,7.05
2017-11-12T23:18:01.718Z,7.82
2017-11-12T23:20:29.275Z,6.90
2017-11-12T23:22:56.853Z,6.60
2017-11-12T23:25:24.424Z,7.15
2017-11-12T23:27:51.959Z,8.10
2017-11-12T23:30:19.570Z,7.00
2017-11-12T23:32:47.899Z,8.05
2017-11-12T23:35:15.464Z,7.25
2017-11-12T23:37:43.031Z,7.15
2017-11-12T23:40:10.622Z,11.02
2017-11-12T23:42:38.188Z,7.90
2017-11-12T23:45:05.820Z,7.53
2017-11-12T23:47:33.408Z,8.25
2017-11-12T23:50:01.531Z,8.43
2017-11-12T23:52:29.839Z,8.60
2017-11-12T23:54:57.387Z,6.85
2017-11-12T23:57:25.771Z,8.55
2017-11-12T23:59:54.352Z,6.62
